sensor_id;sensor_type;location;lat;lon;timestamp;temperature;humidity
12436;DHT22;6282;51.440;6.938;2022-11-11T00:02:15;9.60;99.90
12436;DHT22;6282;51.440;6.938;2022-11-11T00:04:42;9.40;99.90
12436;DHT22;6282;51.440;6.938;2022-11-11T00:07:09;9.40;99.90
12436;DHT22;6282;51.440;6.938;2022-11-11T00:09:36;9.40;99.90
12436;DHT22;6282;51.440;6.938;2022-11-11T00:12:03;9.40;99.90
12436;DHT22;6282;51.440;6.938;2022-11-11T00:14:30;9.40;99.90
12436;DHT22;6282;51.440;6.938;2022-11-11T00:16:56;9.30;99.90
12436;DHT22;6282;51.440;6.938;2022-11-11T00:19:42;9.30;99.90
12436;DHT22;6282;51.440;6.938;2022-11-11T00:22:26;9.30;99.90
12436;DHT22;6282;51.440;6.938;2022-11-11T00:25:12;9.30;99.90
12436;DHT22;6282;51.440;6.938;2022-11-11T00:27:39;9.30;99.90
12436;DHT22;6282;51.440;6.938;2022-11-11T00:30:07;9.30;99.90
12436;DHT22;6282;51.440;6.938;2022-11-11T00:32:34;9.40;99.90
12436;DHT22;6282;51.440;6.938;2022-11-11T00:35:03;9.40;99.90
12436;DHT22;6282;51.440;6.938;2022-11-11T00:37:47;9.30;99.90
12436;DHT22;6282;51.440;6.938;2022-11-11T00:40:15;9.50;99.90
12436;DHT22;6282;51.440;6.938;2022-11-11T00:42:42;9.40;99.90
12436;DHT22;6282;51.440;6.938;2022-11-11T00:45:10;9.40;99.90
12436;DHT22;6282;51.440;6.938;2022-11-11T00:47:38;9.40;99.90
12436;DHT22;6282;51.440;6.938;2022-11-11T00:50:26;9.30;99.90
12436;DHT22;6282;51.440;6.938;2022-11-11T00:53:11;9.30;99.90
12436;DHT22;6282;51.440;6.938;2022-11-11T00:55:38;9.30;99.90
12436;DHT22;6282;51.440;6.938;2022-11-11T00:58:05;9.30;99.90
12436;DHT22;6282;51.440;6.938;2022-11-11T01:00:32;9.30;99.90
12436;DHT22;6282;51.440;6.938;2022-11-11T01:02:59;9.30;99.90
12436;DHT22;6282;51.440;6.938;2022-11-11T01:05:27;9.30;99.90
12436;DHT22;6282;51.440;6.938;2022-11-11T01:07:54;9.40;99.90
12436;DHT22;6282;51.440;6.938;2022-11-11T01:10:21;9.30;99.90
12436;DHT22;6282;51.440;6.938;2022-11-11T01:13:04;9.30;99.90
12436;DHT22;6282;51.440;6.938;2022-11-11T01:15:38;9.30;99.90
12436;DHT22;6282;51.440;6.938;2022-11-11T01:18:05;9.30;99.90
12436;DHT22;6282;51.440;6.938;2022-11-11T01:20:34;9.20;99.90
12436;DHT22;6282;51.440;6.938;2022-11-11T01:23:02;9.30;99.90
12436;DHT22;6282;51.440;6.938;2022-11-11T01:25:32;9.20;99.90
12436;DHT22;6282;51.440;6.938;2022-11-11T01:27:59;9.20;99.90
12436;DHT22;6282;51.440;6.938;2022-11-11T01:30:26;9.20;99.90
12436;DHT22;6282;51.440;6.938;2022-11-11T01:32:53;9.20;99.90
12436;DHT22;6282;51.440;6.938;2022-11-11T01:35:19;9.20;99.90
12436;DHT22;6282;51.440;6.938;2022-11-11T01:37:48;9.20;99.90
12436;DHT22;6282;51.440;6.938;2022-11-11T01:40:15;9.20;99.90
12436;DHT22;6282;51.440;6.938;2022-11-11T01:42:46;9.20;99.90
12436;DHT22;6282;51.440;6.938;2022-11-11T01:45:45;9.20;99.90
12436;DHT22;6282;51.440;6.938;2022-11-11T01:48:16;9.30;99.90
12436;DHT22;6282;51.440;6.938;2022-11-11T01:51:02;9.20;99.90
12436;DHT22;6282;51.440;6.938;2022-11-11T01:53:33;9.30;99.90
12436;DHT22;6282;51.440;6.938;2022-11-11T01:56:01;9.30;99.90
12436;DHT22;6282;51.440;6.938;2022-11-11T01:58:28;9.30;99.90
12436;DHT22;6282;51.440;6.938;2022-11-11T02:00:56;9.30;99.90
12436;DHT22;6282;51.440;6.938;2022-11-11T02:03:25;9.30;99.90
12436;DHT22;6282;51.440;6.938;2022-11-11T02:05:53;9.20;99.90
12436;DHT22;6282;51.440;6.938;2022-11-11T02:08:25;9.20;99.90
12436;DHT22;6282;51.440;6.938;2022-11-11T02:11:03;9.20;99.90
12436;DHT22;6282;51.440;6.938;2022-11-11T02:13:32;9.20;99.90
12436;DHT22;6282;51.440;6.938;2022-11-11T02:16:21;9.20;99.90
12436;DHT22;6282;51.440;6.938;2022-11-11T02:18:48;9.20;99.90
12436;DHT22;6282;51.440;6.938;2022-11-11T02:21:19;9.20;99.90
12436;DHT22;6282;51.440;6.938;2022-11-11T02:23:58;9.20;99.90
12436;DHT22;6282;51.440;6.938;2022-11-11T02:26:29;9.10;99.90
12436;DHT22;6282;51.440;6.938;2022-11-11T02:28:56;9.20;99.90
12436;DHT22;6282;51.440;6.938;2022-11-11T02:31:26;9.10;99.90
12436;DHT22;6282;51.440;6.938;2022-11-11T02:33:53;9.10;99.90
12436;DHT22;6282;51.440;6.938;2022-11-11T02:36:20;9.10;99.90
12436;DHT22;6282;51.440;6.938;2022-11-11T02:38:48;9.20;99.90
12436;DHT22;6282;51.440;6.938;2022-11-11T02:41:16;9.10;99.90
12436;DHT22;6282;51.440;6.938;2022-11-11T02:44:00;9.00;99.90
12436;DHT22;6282;51.440;6.938;2022-11-11T02:46:27;9.00;99.90
12436;DHT22;6282;51.440;6.938;2022-11-11T02:48:54;9.00;99.90
12436;DHT22;6282;51.440;6.938;2022-11-11T02:51:21;9.00;99.90
12436;DHT22;6282;51.440;6.938;2022-11-11T02:53:48;8.90;99.90
12436;DHT22;6282;51.440;6.938;2022-11-11T02:56:16;8.90;99.90
12436;DHT22;6282;51.440;6.938;2022-11-11T02:59:03;8.80;99.90
12436;DHT22;6282;51.440;6.938;2022-11-11T03:01:29;8.80;99.90
12436;DHT22;6282;51.440;6.938;2022-11-11T03:03:56;8.80;99.90
12436;DHT22;6282;51.440;6.938;2022-11-11T03:06:23;8.80;99.90
12436;DHT22;6282;51.440;6.938;2022-11-11T03:08:50;8.70;99.90
12436;DHT22;6282;51.440;6.938;2022-11-11T03:11:18;8.70;99.90
12436;DHT22;6282;51.440;6.938;2022-11-11T03:13:52;8.70;99.90
12436;DHT22;6282;51.440;6.938;2022-11-11T03:16:19;8.80;99.90
12436;DHT22;6282;51.440;6.938;2022-11-11T03:19:14;8.70;99.90
12436;DHT22;6282;51.440;6.938;2022-11-11T03:21:40;8.60;99.90
12436;DHT22;6282;51.440;6.938;2022-11-11T03:24:07;8.60;99.90
12436;DHT22;6282;51.440;6.938;2022-11-11T03:26:36;8.70;99.90
12436;DHT22;6282;51.440;6.938;2022-11-11T03:29:02;8.70;99.90
12436;DHT22;6282;51.440;6.938;2022-11-11T03:31:29;8.70;99.90
12436;DHT22;6282;51.440;6.938;2022-11-11T03:33:56;8.60;99.90
12436;DHT22;6282;51.440;6.938;2022-11-11T03:36:42;8.60;99.90
12436;DHT22;6282;51.440;6.938;2022-11-11T03:39:27;8.50;99.90
12436;DHT22;6282;51.440;6.938;2022-11-11T03:41:55;8.70;99.90
12436;DHT22;6282;51.440;6.938;2022-11-11T03:44:22;8.60;99.90
12436;DHT22;6282;51.440;6.938;2022-11-11T03:46:49;8.60;99.90
12436;DHT22;6282;51.440;6.938;2022-11-11T03:49:16;8.60;99.90
12436;DHT22;6282;51.440;6.938;2022-11-11T03:51:43;8.60;99.90
12436;DHT22;6282;51.440;6.938;2022-11-11T03:54:10;8.80;99.90
12436;DHT22;6282;51.440;6.938;2022-11-11T03:56:36;8.60;99.90
12436;DHT22;6282;51.440;6.938;2022-11-11T03:59:05;8.60;99.90
12436;DHT22;6282;51.440;6.938;2022-11-11T04:01:31;8.70;99.90
12436;DHT22;6282;51.440;6.938;2022-11-11T04:04:15;8.80;99.90
12436;DHT22;6282;51.440;6.938;2022-11-11T04:07:02;8.60;99.90
12436;DHT22;6282;51.440;6.938;2022-11-11T04:09:47;8.60;99.90
12436;DHT22;6282;51.440;6.938;2022-11-11T04:12:32;8.60;99.90
12436;DHT22;6282;51.440;6.938;2022-11-11T04:15:22;8.60;99.90
12436;DHT22;6282;51.440;6.938;2022-11-11T04:18:06;8.60;99.90
12436;DHT22;6282;51.440;6.938;2022-11-11T04:20:32;8.50;99.90
12436;DHT22;6282;51.440;6.938;2022-11-11T04:23:17;8.50;99.90
12436;DHT22;6282;51.440;6.938;2022-11-11T04:25:44;8.50;99.90
12436;DHT22;6282;51.440;6.938;2022-11-11T04:28:17;8.60;99.90
12436;DHT22;6282;51.440;6.938;2022-11-11T04:31:03;8.50;99.90
12436;DHT22;6282;51.440;6.938;2022-11-11T04:33:30;8.50;99.90
12436;DHT22;6282;51.440;6.938;2022-11-11T04:35:56;8.40;99.90
12436;DHT22;6282;51.440;6.938;2022-11-11T04:38:22;8.50;99.90
12436;DHT22;6282;51.440;6.938;2022-11-11T04:41:08;8.50;99.90
12436;DHT22;6282;51.440;6.938;2022-11-11T04:43:35;8.40;99.90
12436;DHT22;6282;51.440;6.938;2022-11-11T04:46:24;8.40;99.90
12436;DHT22;6282;51.440;6.938;2022-11-11T04:48:49;8.40;99.90
12436;DHT22;6282;51.440;6.938;2022-11-11T04:51:16;8.40;99.90
12436;DHT22;6282;51.440;6.938;2022-11-11T04:53:43;8.40;99.90
12436;DHT22;6282;51.440;6.938;2022-11-11T04:56:10;8.40;99.90
12436;DHT22;6282;51.440;6.938;2022-11-11T04:58:54;8.40;99.90
12436;DHT22;6282;51.440;6.938;2022-11-11T05:01:36;8.50;99.90
12436;DHT22;6282;51.440;6.938;2022-11-11T05:04:20;8.50;99.90
12436;DHT22;6282;51.440;6.938;2022-11-11T05:06:47;8.50;99.90
12436;DHT22;6282;51.440;6.938;2022-11-11T05:09:31;8.50;99.90
12436;DHT22;6282;51.440;6.938;2022-11-11T05:11:58;8.40;99.90
12436;DHT22;6282;51.440;6.938;2022-11-11T05:14:25;8.40;99.90
12436;DHT22;6282;51.440;6.938;2022-11-11T05:17:10;8.40;99.90
12436;DHT22;6282;51.440;6.938;2022-11-11T05:19:55;8.40;99.90
12436;DHT22;6282;51.440;6.938;2022-11-11T05:22:40;8.40;99.90
12436;DHT22;6282;51.440;6.938;2022-11-11T05:25:08;8.40;99.90
12436;DHT22;6282;51.440;6.938;2022-11-11T05:27:55;8.30;99.90
12436;DHT22;6282;51.440;6.938;2022-11-11T05:30:24;8.30;99.90
12436;DHT22;6282;51.440;6.938;2022-11-11T05:32:53;8.40;99.90
12436;DHT22;6282;51.440;6.938;2022-11-11T05:35:20;8.40;99.90
12436;DHT22;6282;51.440;6.938;2022-11-11T05:37:47;8.30;99.90
12436;DHT22;6282;51.440;6.938;2022-11-11T05:40:34;8.30;99.90
12436;DHT22;6282;51.440;6.938;2022-11-11T05:43:01;8.40;99.90
12436;DHT22;6282;51.440;6.938;2022-11-11T05:45:28;8.40;99.90
12436;DHT22;6282;51.440;6.938;2022-11-11T05:48:00;8.40;99.90
12436;DHT22;6282;51.440;6.938;2022-11-11T05:50:26;8.40;99.90
12436;DHT22;6282;51.440;6.938;2022-11-11T05:52:53;8.40;99.90
12436;DHT22;6282;51.440;6.938;2022-11-11T05:55:21;8.40;99.90
12436;DHT22;6282;51.440;6.938;2022-11-11T05:57:47;8.60;99.90
12436;DHT22;6282;51.440;6.938;2022-11-11T06:00:15;8.40;99.90
12436;DHT22;6282;51.440;6.938;2022-11-11T06:02:42;8.40;99.90
12436;DHT22;6282;51.440;6.938;2022-11-11T06:05:10;8.40;99.90
12436;DHT22;6282;51.440;6.938;2022-11-11T06:07:38;8.40;99.90
12436;DHT22;6282;51.440;6.938;2022-11-11T06:10:06;8.40;99.90
12436;DHT22;6282;51.440;6.938;2022-11-11T06:12:51;8.40;99.90
12436;DHT22;6282;51.440;6.938;2022-11-11T06:15:35;8.40;99.90
12436;DHT22;6282;51.440;6.938;2022-11-11T06:18:03;8.40;99.90
12436;DHT22;6282;51.440;6.938;2022-11-11T06:20:32;8.40;99.90
12436;DHT22;6282;51.440;6.938;2022-11-11T06:23:00;8.40;99.90
12436;DHT22;6282;51.440;6.938;2022-11-11T06:25:28;8.30;99.90
12436;DHT22;6282;51.440;6.938;2022-11-11T06:28:14;8.40;99.90
12436;DHT22;6282;51.440;6.938;2022-11-11T06:30:41;8.30;99.90
12436;DHT22;6282;51.440;6.938;2022-11-11T06:33:08;8.40;99.90
12436;DHT22;6282;51.440;6.938;2022-11-11T06:35:38;8.30;99.90
12436;DHT22;6282;51.440;6.938;2022-11-11T06:38:06;8.40;99.90
12436;DHT22;6282;51.440;6.938;2022-11-11T06:40:32;8.40;99.90
12436;DHT22;6282;51.440;6.938;2022-11-11T06:42:59;8.40;99.90
12436;DHT22;6282;51.440;6.938;2022-11-11T06:45:29;8.40;99.90
12436;DHT22;6282;51.440;6.938;2022-11-11T06:47:56;8.40;99.90
12436;DHT22;6282;51.440;6.938;2022-11-11T06:50:23;8.40;99.90
12436;DHT22;6282;51.440;6.938;2022-11-11T06:52:51;8.40;99.90
12436;DHT22;6282;51.440;6.938;2022-11-11T06:55:18;8.40;99.90
12436;DHT22;6282;51.440;6.938;2022-11-11T06:57:45;8.40;99.90
12436;DHT22;6282;51.440;6.938;2022-11-11T07:00:13;8.50;99.90
12436;DHT22;6282;51.440;6.938;2022-11-11T07:02:39;8.50;99.90
12436;DHT22;6282;51.440;6.938;2022-11-11T07:05:07;8.50;99.90
12436;DHT22;6282;51.440;6.938;2022-11-11T07:07:33;8.60;99.90
12436;DHT22;6282;51.440;6.938;2022-11-11T07:10:02;8.60;99.90
12436;DHT22;6282;51.440;6.938;2022-11-11T07:12:31;8.70;99.90
12436;DHT22;6282;51.440;6.938;2022-11-11T07:14:58;8.60;99.90
12436;DHT22;6282;51.440;6.938;2022-11-11T07:17:25;8.70;99.90
12436;DHT22;6282;51.440;6.938;2022-11-11T07:19:51;8.70;99.90
12436;DHT22;6282;51.440;6.938;2022-11-11T07:22:18;8.70;99.90
12436;DHT22;6282;51.440;6.938;2022-11-11T07:24:45;9.00;99.90
12436;DHT22;6282;51.440;6.938;2022-11-11T07:27:13;8.80;99.90
12436;DHT22;6282;51.440;6.938;2022-11-11T07:29:40;8.90;99.90
12436;DHT22;6282;51.440;6.938;2022-11-11T07:32:07;8.90;99.90
12436;DHT22;6282;51.440;6.938;2022-11-11T07:34:33;8.90;99.90
12436;DHT22;6282;51.440;6.938;2022-11-11T07:37:00;8.90;99.90
12436;DHT22;6282;51.440;6.938;2022-11-11T07:39:27;9.00;99.90
12436;DHT22;6282;51.440;6.938;2022-11-11T07:41:54;9.00;99.90
12436;DHT22;6282;51.440;6.938;2022-11-11T07:44:22;9.00;99.90
12436;DHT22;6282;51.440;6.938;2022-11-11T07:46:49;9.10;99.90
12436;DHT22;6282;51.440;6.938;2022-11-11T07:49:16;9.20;99.90
12436;DHT22;6282;51.440;6.938;2022-11-11T07:51:43;9.20;99.90
12436;DHT22;6282;51.440;6.938;2022-11-11T07:54:09;9.30;99.90
12436;DHT22;6282;51.440;6.938;2022-11-11T07:56:36;9.30;11.80
12436;DHT22;6282;51.440;6.938;2022-11-11T07:59:03;9.40;1.00
12436;DHT22;6282;51.440;6.938;2022-11-11T08:01:31;9.40;99.90
12436;DHT22;6282;51.440;6.938;2022-11-11T08:03:58;9.60;99.90
12436;DHT22;6282;51.440;6.938;2022-11-11T08:06:25;9.60;15.60
12436;DHT22;6282;51.440;6.938;2022-11-11T08:08:52;9.60;1.00
12436;DHT22;6282;51.440;6.938;2022-11-11T08:11:18;9.70;1.00
12436;DHT22;6282;51.440;6.938;2022-11-11T08:14:05;9.70;99.90
12436;DHT22;6282;51.440;6.938;2022-11-11T08:16:33;9.70;99.90
12436;DHT22;6282;51.440;6.938;2022-11-11T08:19:00;9.70;99.90
12436;DHT22;6282;51.440;6.938;2022-11-11T08:21:27;9.70;99.90
12436;DHT22;6282;51.440;6.938;2022-11-11T08:23:55;9.80;65.90
12436;DHT22;6282;51.440;6.938;2022-11-11T08:26:22;9.80;1.00
12436;DHT22;6282;51.440;6.938;2022-11-11T08:28:51;9.90;1.00
12436;DHT22;6282;51.440;6.938;2022-11-11T08:31:18;9.90;99.90
12436;DHT22;6282;51.440;6.938;2022-11-11T08:33:46;10.00;99.90
12436;DHT22;6282;51.440;6.938;2022-11-11T08:36:13;10.10;99.90
12436;DHT22;6282;51.440;6.938;2022-11-11T08:38:39;10.00;8.80
12436;DHT22;6282;51.440;6.938;2022-11-11T08:41:06;10.10;1.00
12436;DHT22;6282;51.440;6.938;2022-11-11T08:43:33;10.10;1.00
12436;DHT22;6282;51.440;6.938;2022-11-11T08:46:01;10.30;1.00
12436;DHT22;6282;51.440;6.938;2022-11-11T08:48:28;10.20;99.90
12436;DHT22;6282;51.440;6.938;2022-11-11T08:50:57;10.30;99.90
12436;DHT22;6282;51.440;6.938;2022-11-11T08:53:24;10.40;99.90
12436;DHT22;6282;51.440;6.938;2022-11-11T08:55:51;10.40;99.90
12436;DHT22;6282;51.440;6.938;2022-11-11T08:58:18;10.40;1.00
12436;DHT22;6282;51.440;6.938;2022-11-11T09:00:45;10.40;1.00
12436;DHT22;6282;51.440;6.938;2022-11-11T09:03:12;10.40;1.00
12436;DHT22;6282;51.440;6.938;2022-11-11T09:05:40;10.50;1.00
12436;DHT22;6282;51.440;6.938;2022-11-11T09:08:08;10.50;1.00
12436;DHT22;6282;51.440;6.938;2022-11-11T09:10:35;10.60;1.00
12436;DHT22;6282;51.440;6.938;2022-11-11T09:13:03;10.60;1.00
12436;DHT22;6282;51.440;6.938;2022-11-11T09:15:30;10.60;1.00
12436;DHT22;6282;51.440;6.938;2022-11-11T09:17:57;10.70;99.90
12436;DHT22;6282;51.440;6.938;2022-11-11T09:20:24;10.70;99.90
12436;DHT22;6282;51.440;6.938;2022-11-11T09:22:51;10.70;99.90
12436;DHT22;6282;51.440;6.938;2022-11-11T09:25:20;10.70;99.90
12436;DHT22;6282;51.440;6.938;2022-11-11T09:27:53;10.80;99.90
12436;DHT22;6282;51.440;6.938;2022-11-11T09:30:20;10.90;99.90
12436;DHT22;6282;51.440;6.938;2022-11-11T09:32:47;11.00;1.00
12436;DHT22;6282;51.440;6.938;2022-11-11T09:35:14;11.10;1.00
12436;DHT22;6282;51.440;6.938;2022-11-11T09:37:41;11.20;1.00
12436;DHT22;6282;51.440;6.938;2022-11-11T09:40:13;11.30;1.00
12436;DHT22;6282;51.440;6.938;2022-11-11T09:42:47;11.40;1.00
12436;DHT22;6282;51.440;6.938;2022-11-11T09:45:20;11.40;99.90
12436;DHT22;6282;51.440;6.938;2022-11-11T09:47:55;11.40;99.90
12436;DHT22;6282;51.440;6.938;2022-11-11T09:50:27;11.40;99.90
12436;DHT22;6282;51.440;6.938;2022-11-11T09:53:00;11.60;99.90
12436;DHT22;6282;51.440;6.938;2022-11-11T09:55:34;11.70;99.90
12436;DHT22;6282;51.440;6.938;2022-11-11T09:58:09;11.90;1.00
12436;DHT22;6282;51.440;6.938;2022-11-11T10:00:41;12.00;1.00
12436;DHT22;6282;51.440;6.938;2022-11-11T10:03:14;12.00;1.00
12436;DHT22;6282;51.440;6.938;2022-11-11T10:05:46;12.10;1.00
12436;DHT22;6282;51.440;6.938;2022-11-11T10:08:19;12.00;99.90
12436;DHT22;6282;51.440;6.938;2022-11-11T10:10:49;12.10;99.90
12436;DHT22;6282;51.440;6.938;2022-11-11T10:13:22;12.00;99.90
12436;DHT22;6282;51.440;6.938;2022-11-11T10:15:57;12.00;99.90
12436;DHT22;6282;51.440;6.938;2022-11-11T10:18:46;12.00;99.90
12436;DHT22;6282;51.440;6.938;2022-11-11T10:21:21;12.00;1.00
12436;DHT22;6282;51.440;6.938;2022-11-11T10:23:51;12.00;99.90
12436;DHT22;6282;51.440;6.938;2022-11-11T10:26:27;12.10;99.90
12436;DHT22;6282;51.440;6.938;2022-11-11T10:29:00;12.10;5.10
12436;DHT22;6282;51.440;6.938;2022-11-11T10:31:29;12.30;1.00
12436;DHT22;6282;51.440;6.938;2022-11-11T10:33:59;12.30;1.00
12436;DHT22;6282;51.440;6.938;2022-11-11T10:36:28;12.40;1.00
12436;DHT22;6282;51.440;6.938;2022-11-11T10:38:59;12.50;1.00
12436;DHT22;6282;51.440;6.938;2022-11-11T10:41:32;12.50;1.00
12436;DHT22;6282;51.440;6.938;2022-11-11T10:44:00;12.50;1.00
12436;DHT22;6282;51.440;6.938;2022-11-11T10:46:31;12.70;1.00
12436;DHT22;6282;51.440;6.938;2022-11-11T10:49:04;12.70;99.90
12436;DHT22;6282;51.440;6.938;2022-11-11T10:51:36;12.60;99.90
12436;DHT22;6282;51.440;6.938;2022-11-11T10:54:07;12.40;99.90
12436;DHT22;6282;51.440;6.938;2022-11-11T10:56:38;12.50;99.90
12436;DHT22;6282;51.440;6.938;2022-11-11T10:59:15;12.60;99.90
12436;DHT22;6282;51.440;6.938;2022-11-11T11:01:50;12.70;99.90
12436;DHT22;6282;51.440;6.938;2022-11-11T11:04:23;12.80;99.90
12436;DHT22;6282;51.440;6.938;2022-11-11T11:06:53;12.90;99.90
12436;DHT22;6282;51.440;6.938;2022-11-11T11:09:22;13.00;57.90
12436;DHT22;6282;51.440;6.938;2022-11-11T11:11:55;13.10;32.90
12436;DHT22;6282;51.440;6.938;2022-11-11T11:14:28;13.10;1.00
12436;DHT22;6282;51.440;6.938;2022-11-11T11:17:04;13.30;1.00
12436;DHT22;6282;51.440;6.938;2022-11-11T11:19:33;13.30;1.00
12436;DHT22;6282;51.440;6.938;2022-11-11T11:22:01;13.40;1.00
12436;DHT22;6282;51.440;6.938;2022-11-11T11:24:30;13.40;1.00
12436;DHT22;6282;51.440;6.938;2022-11-11T11:26:59;13.50;1.00
12436;DHT22;6282;51.440;6.938;2022-11-11T11:29:29;13.60;1.00
12436;DHT22;6282;51.440;6.938;2022-11-11T11:32:14;13.60;1.00
12436;DHT22;6282;51.440;6.938;2022-11-11T11:34:46;13.50;1.00
12436;DHT22;6282;51.440;6.938;2022-11-11T11:37:14;13.40;1.00
12436;DHT22;6282;51.440;6.938;2022-11-11T11:39:41;13.40;1.00
12436;DHT22;6282;51.440;6.938;2022-11-11T11:42:08;13.40;1.00
12436;DHT22;6282;51.440;6.938;2022-11-11T11:44:53;13.60;1.00
12436;DHT22;6282;51.440;6.938;2022-11-11T11:47:38;13.70;99.90
12436;DHT22;6282;51.440;6.938;2022-11-11T11:50:30;13.60;99.90
12436;DHT22;6282;51.440;6.938;2022-11-11T11:53:20;13.60;99.90
12436;DHT22;6282;51.440;6.938;2022-11-11T11:55:53;13.70;1.00
12436;DHT22;6282;51.440;6.938;2022-11-11T11:58:33;13.70;99.90
12436;DHT22;6282;51.440;6.938;2022-11-11T12:01:05;13.70;99.90
12436;DHT22;6282;51.440;6.938;2022-11-11T12:06:38;13.50;99.90
12436;DHT22;6282;51.440;6.938;2022-11-11T12:09:15;13.50;99.90
12436;DHT22;6282;51.440;6.938;2022-11-11T12:11:50;13.40;99.90
12436;DHT22;6282;51.440;6.938;2022-11-11T12:14:32;13.50;99.90
12436;DHT22;6282;51.440;6.938;2022-11-11T12:17:10;13.50;99.90
12436;DHT22;6282;51.440;6.938;2022-11-11T12:19:46;13.60;99.90
12436;DHT22;6282;51.440;6.938;2022-11-11T12:22:26;13.30;99.90
12436;DHT22;6282;51.440;6.938;2022-11-11T12:25:01;13.30;99.90
12436;DHT22;6282;51.440;6.938;2022-11-11T12:27:39;13.40;99.90
12436;DHT22;6282;51.440;6.938;2022-11-11T12:30:10;13.40;99.90
12436;DHT22;6282;51.440;6.938;2022-11-11T12:33:05;13.50;99.90
12436;DHT22;6282;51.440;6.938;2022-11-11T12:35:48;13.30;99.90
12436;DHT22;6282;51.440;6.938;2022-11-11T12:38:33;13.40;99.90
12436;DHT22;6282;51.440;6.938;2022-11-11T12:41:10;13.40;99.90
12436;DHT22;6282;51.440;6.938;2022-11-11T12:43:45;13.40;99.90
12436;DHT22;6282;51.440;6.938;2022-11-11T12:46:21;13.40;99.90
12436;DHT22;6282;51.440;6.938;2022-11-11T12:49:02;13.50;99.90
12436;DHT22;6282;51.440;6.938;2022-11-11T12:51:44;13.50;99.90
12436;DHT22;6282;51.440;6.938;2022-11-11T12:54:25;13.40;99.90
12436;DHT22;6282;51.440;6.938;2022-11-11T12:57:01;13.40;99.90
12436;DHT22;6282;51.440;6.938;2022-11-11T12:59:42;13.40;99.90
12436;DHT22;6282;51.440;6.938;2022-11-11T13:02:29;13.30;99.90
12436;DHT22;6282;51.440;6.938;2022-11-11T13:05:07;13.30;99.90
12436;DHT22;6282;51.440;6.938;2022-11-11T13:07:59;13.30;99.90
12436;DHT22;6282;51.440;6.938;2022-11-11T13:10:31;13.30;99.90
12436;DHT22;6282;51.440;6.938;2022-11-11T13:13:08;13.20;99.90
12436;DHT22;6282;51.440;6.938;2022-11-11T13:15:38;13.30;99.90
12436;DHT22;6282;51.440;6.938;2022-11-11T13:18:09;13.20;90.70
12436;DHT22;6282;51.440;6.938;2022-11-11T13:20:49;13.20;99.90
12436;DHT22;6282;51.440;6.938;2022-11-11T13:23:17;13.20;99.90
12436;DHT22;6282;51.440;6.938;2022-11-11T13:25:47;13.20;99.90
12436;DHT22;6282;51.440;6.938;2022-11-11T13:28:18;13.20;99.90
12436;DHT22;6282;51.440;6.938;2022-11-11T13:31:02;13.20;99.90
12436;DHT22;6282;51.440;6.938;2022-11-11T13:33:38;13.30;99.90
12436;DHT22;6282;51.440;6.938;2022-11-11T13:36:10;13.30;99.90
12436;DHT22;6282;51.440;6.938;2022-11-11T13:38:44;13.30;99.90
12436;DHT22;6282;51.440;6.938;2022-11-11T13:41:18;13.30;99.90
12436;DHT22;6282;51.440;6.938;2022-11-11T13:43:47;13.30;99.90
12436;DHT22;6282;51.440;6.938;2022-11-11T13:46:32;13.30;99.90
12436;DHT22;6282;51.440;6.938;2022-11-11T13:49:01;13.20;99.90
12436;DHT22;6282;51.440;6.938;2022-11-11T13:51:35;13.20;99.90
12436;DHT22;6282;51.440;6.938;2022-11-11T13:54:05;13.30;99.90
12436;DHT22;6282;51.440;6.938;2022-11-11T13:56:36;13.20;99.90
12436;DHT22;6282;51.440;6.938;2022-11-11T13:59:04;13.20;99.90
12436;DHT22;6282;51.440;6.938;2022-11-11T14:01:36;13.20;99.90
12436;DHT22;6282;51.440;6.938;2022-11-11T14:04:06;13.30;99.90
12436;DHT22;6282;51.440;6.938;2022-11-11T14:06:49;13.30;99.90
12436;DHT22;6282;51.440;6.938;2022-11-11T14:09:54;13.30;99.90
12436;DHT22;6282;51.440;6.938;2022-11-11T14:12:36;13.20;99.90
12436;DHT22;6282;51.440;6.938;2022-11-11T14:15:04;13.30;1.00
12436;DHT22;6282;51.440;6.938;2022-11-11T14:17:33;13.30;99.90
12436;DHT22;6282;51.440;6.938;2022-11-11T14:20:33;13.30;1.00
12436;DHT22;6282;51.440;6.938;2022-11-11T14:23:23;13.30;1.00
12436;DHT22;6282;51.440;6.938;2022-11-11T14:25:51;13.30;1.00
12436;DHT22;6282;51.440;6.938;2022-11-11T14:28:41;13.30;1.00
12436;DHT22;6282;51.440;6.938;2022-11-11T14:31:44;13.20;1.00
12436;DHT22;6282;51.440;6.938;2022-11-11T14:34:22;13.30;1.00
12436;DHT22;6282;51.440;6.938;2022-11-11T14:36:56;13.20;1.00
12436;DHT22;6282;51.440;6.938;2022-11-11T14:39:35;13.10;1.00
12436;DHT22;6282;51.440;6.938;2022-11-11T14:42:04;13.10;1.00
12436;DHT22;6282;51.440;6.938;2022-11-11T14:44:51;13.10;1.00
12436;DHT22;6282;51.440;6.938;2022-11-11T14:47:24;13.00;36.10
12436;DHT22;6282;51.440;6.938;2022-11-11T14:49:57;13.00;1.00
12436;DHT22;6282;51.440;6.938;2022-11-11T14:52:29;13.10;1.00
12436;DHT22;6282;51.440;6.938;2022-11-11T14:55:10;13.10;1.00
12436;DHT22;6282;51.440;6.938;2022-11-11T14:57:39;13.00;1.00
12436;DHT22;6282;51.440;6.938;2022-11-11T15:00:12;13.00;11.90
12436;DHT22;6282;51.440;6.938;2022-11-11T15:02:47;13.00;83.70
12436;DHT22;6282;51.440;6.938;2022-11-11T15:05:19;13.00;1.00
12436;DHT22;6282;51.440;6.938;2022-11-11T15:08:00;13.00;1.00
12436;DHT22;6282;51.440;6.938;2022-11-11T15:10:37;12.90;99.90
12436;DHT22;6282;51.440;6.938;2022-11-11T15:16:11;12.80;99.90
12436;DHT22;6282;51.440;6.938;2022-11-11T15:19:02;12.70;99.90
12436;DHT22;6282;51.440;6.938;2022-11-11T15:21:34;12.70;99.90
12436;DHT22;6282;51.440;6.938;2022-11-11T15:24:12;12.60;99.90
12436;DHT22;6282;51.440;6.938;2022-11-11T15:27:01;12.40;99.90
12436;DHT22;6282;51.440;6.938;2022-11-11T15:29:53;12.20;1.00
12436;DHT22;6282;51.440;6.938;2022-11-11T15:32:30;11.90;1.00
12436;DHT22;6282;51.440;6.938;2022-11-11T15:35:11;11.90;99.90
12436;DHT22;6282;51.440;6.938;2022-11-11T15:37:46;11.70;99.90
12436;DHT22;6282;51.440;6.938;2022-11-11T15:40:18;11.50;1.00
12436;DHT22;6282;51.440;6.938;2022-11-11T15:42:48;11.40;99.90
12436;DHT22;6282;51.440;6.938;2022-11-11T15:45:20;11.30;1.00
12436;DHT22;6282;51.440;6.938;2022-11-11T15:47:48;11.00;1.00
12436;DHT22;6282;51.440;6.938;2022-11-11T15:50:26;10.90;1.00
12436;DHT22;6282;51.440;6.938;2022-11-11T15:52:55;10.80;99.90
12436;DHT22;6282;51.440;6.938;2022-11-11T15:55:24;10.60;1.00
12436;DHT22;6282;51.440;6.938;2022-11-11T15:57:53;10.60;99.90
12436;DHT22;6282;51.440;6.938;2022-11-11T16:00:28;10.60;1.00
12436;DHT22;6282;51.440;6.938;2022-11-11T16:02:55;10.50;1.00
12436;DHT22;6282;51.440;6.938;2022-11-11T16:05:24;10.50;99.90
12436;DHT22;6282;51.440;6.938;2022-11-11T16:07:53;10.40;1.00
12436;DHT22;6282;51.440;6.938;2022-11-11T16:10:27;10.40;47.50
12436;DHT22;6282;51.440;6.938;2022-11-11T16:12:57;10.30;99.90
12436;DHT22;6282;51.440;6.938;2022-11-11T16:15:37;10.10;1.00
12436;DHT22;6282;51.440;6.938;2022-11-11T16:18:11;10.10;1.00
12436;DHT22;6282;51.440;6.938;2022-11-11T16:20:45;10.10;99.90
12436;DHT22;6282;51.440;6.938;2022-11-11T16:23:15;10.10;99.90
12436;DHT22;6282;51.440;6.938;2022-11-11T16:25:43;10.10;84.10
12436;DHT22;6282;51.440;6.938;2022-11-11T16:28:13;10.10;99.90
12436;DHT22;6282;51.440;6.938;2022-11-11T16:30:40;10.20;99.90
12436;DHT22;6282;51.440;6.938;2022-11-11T16:33:19;9.90;99.90
12436;DHT22;6282;51.440;6.938;2022-11-11T16:35:46;9.70;99.90
12436;DHT22;6282;51.440;6.938;2022-11-11T16:38:28;9.60;99.90